createdAt,value
2023-04-28T00:02:10.435Z,97100.38
2023-04-28T00:04:58.110Z,97097.91
2023-04-28T00:07:45.103Z,97104.25
2023-04-28T00:10:31.938Z,97092.34
2023-04-28T00:13:19.043Z,97094.41
2023-04-28T00:16:06.358Z,97091.13
2023-04-28T00:18:53.241Z,97087.03
2023-04-28T00:21:40.362Z,97093.38
2023-04-28T00:24:27.366Z,97093.63
2023-04-28T00:27:14.273Z,97092.41
2023-04-28T00:30:01.266Z,97087.25
2023-04-28T00:32:48.197Z,97086.66
2023-04-28T00:35:35.070Z,97077.19
2023-04-28T00:38:22.459Z,97073.88
2023-04-28T00:41:12.468Z,97077.59
2023-04-28T00:43:59.307Z,97076.16
2023-04-28T00:46:46.317Z,97078.22
2023-04-28T00:49:34.189Z,97074.94
2023-04-28T00:52:21.031Z,97078.88
2023-04-28T00:55:09.620Z,97074.53
2023-04-28T00:57:56.718Z,97083.81
2023-04-28T01:00:43.564Z,97074.13
2023-04-28T01:03:30.542Z,97070.03
2023-04-28T01:06:18.171Z,97063.25
2023-04-28T01:09:06.338Z,97056.69
2023-04-28T01:11:53.223Z,97060.41
2023-04-28T01:14:40.295Z,97061.41
2023-04-28T01:17:27.393Z,97058.13
2023-04-28T01:20:14.951Z,97052.97
2023-04-28T01:23:01.834Z,97062.28
2023-04-28T01:25:48.680Z,97058.97
2023-04-28T01:28:35.837Z,97047.88
2023-04-28T01:31:22.777Z,97055.06
2023-04-28T01:34:09.735Z,97059.78
2023-04-28T01:36:56.683Z,97053.03
2023-04-28T01:39:43.563Z,97053.44
2023-04-28T01:42:30.473Z,97050.97
2023-04-28T01:45:17.369Z,97050.97
2023-04-28T01:48:04.473Z,97049.56
2023-04-28T01:50:51.351Z,97042.75
2023-04-28T01:53:38.251Z,97047.28
2023-04-28T01:56:25.125Z,97035.97
2023-04-28T01:59:12.003Z,97031.03
2023-04-28T02:01:58.858Z,97041.94
2023-04-28T02:04:45.892Z,97035.97
2023-04-28T02:07:32.792Z,97024.69
2023-04-28T02:10:19.654Z,97024.88
2023-04-28T02:13:06.526Z,97021.63
2023-04-28T02:15:53.425Z,97019.97
2023-04-28T02:18:40.337Z,97021.22
2023-04-28T02:21:27.896Z,97017.09
2023-04-28T02:24:15.052Z,97018.13
2023-04-28T02:27:02.406Z,97011.34
2023-04-28T02:29:49.516Z,97010.53
2023-04-28T02:32:36.386Z,97005.41
2023-04-28T02:35:23.194Z,97018.94
2023-04-28T02:38:10.079Z,97018.34
2023-04-28T02:41:01.962Z,97019.56
2023-04-28T02:43:48.816Z,97009.72
2023-04-28T02:46:35.995Z,97013.19
2023-04-28T02:49:22.888Z,97018.13
2023-04-28T02:52:09.763Z,97018.34
2023-04-28T02:54:57.744Z,97030.06
2023-04-28T02:57:44.597Z,97024.91
2023-04-28T03:00:31.755Z,97025.13
2023-04-28T03:03:18.810Z,97008.47
2023-04-28T03:06:06.415Z,97011.38
2023-04-28T03:08:53.310Z,97009.06
2023-04-28T03:11:40.132Z,97001.47
2023-04-28T03:14:27.029Z,96999.84
2023-04-28T03:17:14.121Z,96985.03
2023-04-28T03:20:00.968Z,96993.06
2023-04-28T03:22:47.871Z,96987.09
2023-04-28T03:25:34.727Z,96990.78
2023-04-28T03:28:22.000Z,96992.00
2023-04-28T03:31:08.811Z,97000.25
2023-04-28T03:33:55.734Z,96999.41
2023-04-28T03:36:42.759Z,96986.47
2023-04-28T03:39:29.649Z,96971.50
2023-04-28T03:42:16.744Z,96965.53
2023-04-28T03:45:04.098Z,96973.75
2023-04-28T03:47:51.433Z,96980.31
2023-04-28T03:50:40.722Z,96969.03
2023-04-28T03:53:27.645Z,96964.50
2023-04-28T03:56:14.679Z,96968.41
2023-04-28T03:59:01.548Z,96965.09
2023-04-28T04:01:48.389Z,96963.69
2023-04-28T04:04:35.496Z,96958.53
2023-04-28T04:07:23.036Z,96953.41
2023-04-28T04:10:10.456Z,96953.41
2023-04-28T04:12:57.390Z,96949.31
2023-04-28T04:15:44.350Z,96957.53
2023-04-28T04:18:31.790Z,96961.19
2023-04-28T04:21:18.738Z,96951.78
2023-04-28T04:24:05.978Z,96949.28
2023-04-28T04:26:52.811Z,96939.66
2023-04-28T04:29:39.818Z,96942.53
2023-04-28T04:32:26.695Z,96942.53
2023-04-28T04:35:13.591Z,96940.28
2023-04-28T04:38:01.600Z,96941.50
2023-04-28T04:40:48.609Z,96952.19
2023-04-28T04:43:35.471Z,96947.06
2023-04-28T04:46:22.739Z,96948.06
2023-04-28T04:49:09.596Z,96941.09
2023-04-28T04:51:56.437Z,96943.16
2023-04-28T04:54:43.305Z,96928.16
2023-04-28T04:57:30.443Z,96934.53
2023-04-28T05:00:18.013Z,96929.59
2023-04-28T05:03:06.390Z,96920.75
2023-04-28T05:05:53.446Z,96912.97
2023-04-28T05:08:40.378Z,96920.13
2023-04-28T05:11:27.439Z,96924.88
2023-04-28T05:14:14.463Z,96932.06
2023-04-28T05:17:01.650Z,96919.72
2023-04-28T05:19:48.480Z,96920.75
2023-04-28T05:22:35.395Z,96917.50
2023-04-28T05:25:22.312Z,96928.97
2023-04-28T05:28:10.379Z,96915.00
2023-04-28T05:30:57.238Z,96916.84
2023-04-28T05:33:44.059Z,96918.72
2023-04-28T05:36:32.015Z,96920.56
2023-04-28T05:39:18.845Z,96928.75
2023-04-28T05:42:05.839Z,96927.13
2023-04-28T05:44:52.745Z,96929.78
2023-04-28T05:47:39.637Z,96933.47
2023-04-28T05:50:26.518Z,96927.13
2023-04-28T05:53:13.349Z,96938.59
2023-04-28T05:56:00.235Z,96944.16
2023-04-28T05:58:49.432Z,96934.28
2023-04-28T06:01:36.330Z,96937.78
2023-04-28T06:04:23.843Z,96935.13
2023-04-28T06:07:11.177Z,96938.81
2023-04-28T06:09:58.022Z,96937.78
2023-04-28T06:12:44.937Z,96935.31
2023-04-28T06:15:32.465Z,96937.78
2023-04-28T06:18:19.373Z,96920.97
2023-04-28T06:21:06.203Z,96911.94
2023-04-28T06:23:53.020Z,96911.09
2023-04-28T06:26:40.315Z,96901.47
2023-04-28T06:29:27.909Z,96911.31
2023-04-28T06:32:14.834Z,96909.66
2023-04-28T06:35:01.659Z,96913.19
2023-04-28T06:37:48.487Z,96910.28
2023-04-28T06:40:35.361Z,96908.66
2023-04-28T06:43:22.362Z,96909.47
2023-04-28T06:46:09.862Z,96906.00
2023-04-28T06:48:56.796Z,96910.50
2023-04-28T06:51:43.703Z,96920.31
2023-04-28T06:54:30.942Z,96926.50
2023-04-28T06:57:17.791Z,96934.50
2023-04-28T07:00:05.327Z,96938.00
2023-04-28T07:02:52.343Z,96936.16
2023-04-28T07:05:39.327Z,96930.81
2023-04-28T07:08:26.769Z,96929.19
2023-04-28T07:11:13.678Z,96936.34
2023-04-28T07:14:00.549Z,96940.66
2023-04-28T07:16:47.468Z,96933.66
2023-04-28T07:19:34.304Z,96927.50
2023-04-28T07:22:21.145Z,96930.19
2023-04-28T07:25:08.520Z,96924.66
2023-04-28T07:27:55.628Z,96926.69
2023-04-28T07:30:42.500Z,96916.25
2023-04-28T07:33:29.358Z,96918.91
2023-04-28T07:36:16.297Z,96910.91
2023-04-28T07:39:03.237Z,96909.88
2023-04-28T07:41:50.345Z,96914.41
2023-04-28T07:44:37.305Z,96918.69
2023-04-28T07:47:24.597Z,96912.31
2023-04-28T07:50:12.194Z,96917.47
2023-04-28T07:52:59.153Z,96914.59
2023-04-28T07:55:46.191Z,96908.22
2023-04-28T07:58:33.082Z,96900.03
2023-04-28T08:01:19.992Z,96913.16
2023-04-28T08:04:07.033Z,96910.31
2023-04-28T08:06:54.327Z,96908.25
2023-04-28T08:09:43.988Z,96909.91
2023-04-28T08:12:31.416Z,96910.72
2023-04-28T08:15:18.636Z,96912.56
2023-04-28T08:18:05.763Z,96913.38
2023-04-28T08:20:52.769Z,96920.56
2023-04-28T08:23:39.640Z,96901.91
2023-04-28T08:26:26.533Z,96901.91
2023-04-28T08:29:13.418Z,96903.72
2023-04-28T08:32:01.870Z,96903.13
2023-04-28T08:34:49.048Z,96905.56
2023-04-28T08:37:36.334Z,96903.94
2023-04-28T08:40:24.313Z,96919.94
2023-04-28T08:43:11.493Z,96921.78
2023-04-28T08:45:59.092Z,96927.13
2023-04-28T08:48:46.557Z,96925.28
2023-04-28T08:51:35.921Z,96930.81
2023-04-28T08:54:26.875Z,96935.13
2023-04-28T08:57:14.200Z,96925.50
2023-04-28T09:00:01.220Z,96927.31
2023-04-28T09:02:48.332Z,96931.81
2023-04-28T09:05:36.969Z,96939.00
2023-04-28T09:08:24.012Z,96945.16
2023-04-28T09:11:13.490Z,96940.06
2023-04-28T09:14:12.602Z,96935.75
2023-04-28T09:16:59.353Z,96942.72
2023-04-28T09:19:46.277Z,96922.59
2023-04-28T09:22:33.369Z,96919.94
2023-04-28T09:25:24.146Z,96918.06
2023-04-28T09:28:23.452Z,96899.63
2023-04-28T09:31:25.274Z,96894.50
2023-04-28T09:34:15.720Z,96894.28
2023-04-28T09:37:18.028Z,96891.63
2023-04-28T09:40:09.593Z,96883.63
2023-04-28T09:42:57.058Z,96871.09
2023-04-28T09:45:45.860Z,96865.97
2023-04-28T09:48:41.636Z,96871.09
2023-04-28T09:51:28.664Z,96852.84
2023-04-28T09:54:16.092Z,96844.81
2023-04-28T09:57:03.185Z,96849.34
2023-04-28T09:59:52.274Z,96845.88
2023-04-28T10:05:29.304Z,96840.53
2023-04-28T10:08:16.566Z,96845.03
2023-04-28T10:11:03.914Z,96849.34
2023-04-28T10:13:51.531Z,96838.69
2023-04-28T10:16:38.476Z,96832.75
2023-04-28T10:19:25.389Z,96833.56
2023-04-28T10:22:38.145Z,96841.56
2023-04-28T10:25:30.191Z,96833.56
2023-04-28T10:28:17.190Z,96824.94
2023-04-28T10:31:13.905Z,96824.94
2023-04-28T10:34:24.507Z,96824.94
2023-04-28T10:37:11.368Z,96818.78
2023-04-28T10:40:35.959Z,96824.94
2023-04-28T10:43:25.870Z,96825.16
2023-04-28T10:46:13.146Z,96819.81
2023-04-28T10:49:00.234Z,96818.16
2023-04-28T10:51:47.126Z,96815.50
2023-04-28T10:54:33.994Z,96822.47
2023-04-28T10:57:21.352Z,96821.66
2023-04-28T11:00:28.631Z,96806.47
2023-04-28T11:04:00.217Z,96788.63
2023-04-28T11:07:10.847Z,96790.47
2023-04-28T11:09:57.713Z,96793.34
2023-04-28T11:13:26.712Z,96801.97
2023-04-28T11:16:21.251Z,96789.44
2023-04-28T11:19:10.049Z,96792.13
2023-04-28T11:21:58.957Z,96801.16
2023-04-28T11:24:59.941Z,96797.66
2023-04-28T11:27:46.796Z,96775.69
2023-04-28T11:30:34.197Z,96761.75
2023-04-28T11:33:21.143Z,96771.19
2023-04-28T11:36:07.985Z,96779.81
2023-04-28T11:38:56.883Z,96781.63
2023-04-28T11:41:45.096Z,96782.66
2023-04-28T11:44:32.997Z,96783.88
2023-04-28T11:47:30.390Z,96779.19
2023-04-28T11:50:17.707Z,96792.31
2023-04-28T11:53:04.582Z,96788.59
2023-04-28T11:56:05.311Z,96789.63
2023-04-28T11:59:04.843Z,96792.31
2023-04-28T12:01:54.450Z,96788.59
2023-04-28T12:04:42.947Z,96794.97
2023-04-28T12:07:29.814Z,96800.53
2023-04-28T12:10:17.654Z,96810.97
2023-04-28T12:13:16.777Z,96807.50
2023-04-28T12:16:05.897Z,96802.97
2023-04-28T12:19:00.086Z,96807.50
2023-04-28T12:22:03.068Z,96815.50
2023-04-28T12:25:06.945Z,96813.41
2023-04-28T12:28:03.458Z,96817.75
2023-04-28T12:30:50.228Z,96824.50
2023-04-28T12:33:40.573Z,96822.69
2023-04-28T12:36:27.378Z,96822.47
2023-04-28T12:39:16.432Z,96823.28
2023-04-28T12:42:03.518Z,96815.28
2023-04-28T12:44:50.515Z,96814.25
2023-04-28T12:47:37.883Z,96810.56
2023-04-28T12:50:25.627Z,96799.88
2023-04-28T12:53:12.474Z,96798.84
2023-04-28T12:55:59.487Z,96799.66
2023-04-28T12:58:46.586Z,96796.81
2023-04-28T13:01:33.970Z,96796.81
2023-04-28T13:04:21.635Z,96791.47
2023-04-28T13:07:08.724Z,96786.13
2023-04-28T13:09:55.849Z,96786.97
2023-04-28T13:12:42.931Z,96777.91
2023-04-28T13:15:30.158Z,96778.94
2023-04-28T13:18:16.940Z,96779.75
2023-04-28T13:21:05.702Z,96779.75
2023-04-28T13:23:53.718Z,96788.59
2023-04-28T13:26:40.544Z,96780.59
2023-04-28T13:29:27.572Z,96770.72
2023-04-28T13:32:14.393Z,96766.19
2023-04-28T13:35:01.128Z,96771.34
2023-04-28T13:37:48.024Z,96762.53
2023-04-28T13:40:34.908Z,96763.94
2023-04-28T13:43:21.707Z,96763.75
2023-04-28T13:46:09.267Z,96758.19
2023-04-28T13:48:56.202Z,96741.94
2023-04-28T13:51:42.971Z,96739.28
2023-04-28T13:54:29.746Z,96718.56
2023-04-28T13:57:16.927Z,96721.00
2023-04-28T14:00:05.071Z,96720.19
2023-04-28T14:02:52.366Z,96725.34
2023-04-28T14:05:48.907Z,96737.63
2023-04-28T14:08:36.765Z,96756.09
2023-04-28T14:11:23.491Z,96746.03
2023-04-28T14:14:10.391Z,96748.50
2023-04-28T14:16:57.182Z,96745.00
2023-04-28T14:19:44.336Z,96747.47
2023-04-28T14:22:31.265Z,96741.91
2023-04-28T14:25:18.790Z,96743.56
2023-04-28T14:28:05.544Z,96732.06
2023-04-28T14:30:53.915Z,96739.25
2023-04-28T14:33:40.769Z,96730.22
2023-04-28T14:36:27.742Z,96721.19
2023-04-28T14:39:14.481Z,96723.63
2023-04-28T14:42:02.053Z,96725.28
2023-04-28T14:44:49.039Z,96718.06
2023-04-28T14:47:37.100Z,96713.78
2023-04-28T14:50:24.257Z,96724.28
2023-04-28T14:53:11.042Z,96699.63
2023-04-28T14:56:07.562Z,96712.16
2023-04-28T14:59:04.362Z,96718.28
2023-04-28T15:01:51.982Z,96712.91
2023-04-28T15:04:39.213Z,96714.13
2023-04-28T15:07:31.844Z,96714.94
2023-04-28T15:10:18.794Z,96714.72
2023-04-28T15:13:06.577Z,96732.41
2023-04-28T15:15:53.420Z,96719.84
2023-04-28T15:18:40.219Z,96714.28
2023-04-28T15:21:28.647Z,96715.09
2023-04-28T15:24:15.838Z,96705.47
2023-04-28T15:27:04.115Z,96701.16
2023-04-28T15:29:50.818Z,96685.16
2023-04-28T15:32:38.194Z,96667.28
2023-04-28T15:35:25.045Z,96664.59
2023-04-28T15:38:12.073Z,96671.56
2023-04-28T15:40:58.818Z,96660.88
2023-04-28T15:43:46.182Z,96670.56
2023-04-28T15:46:32.936Z,96668.69
2023-04-28T15:49:19.719Z,96667.66
2023-04-28T15:52:06.445Z,96676.47
2023-04-28T15:54:54.566Z,96685.13
2023-04-28T15:57:41.811Z,96680.59
2023-04-28T16:00:28.553Z,96678.53
2023-04-28T16:03:15.626Z,96683.88
2023-04-28T16:06:03.707Z,96686.34
2023-04-28T16:08:50.465Z,96681.59
2023-04-28T16:11:38.568Z,96681.59
2023-04-28T16:14:26.003Z,96690.47
2023-04-28T16:17:12.858Z,96687.56
2023-04-28T16:19:59.725Z,96681.19
2023-04-28T16:22:46.751Z,96686.50
2023-04-28T16:25:33.633Z,96691.66
2023-04-28T16:28:20.390Z,96681.78
2023-04-28T16:31:07.127Z,96685.28
2023-04-28T16:33:53.865Z,96671.91
2023-04-28T16:36:41.315Z,96684.22
2023-04-28T16:39:28.357Z,96685.06
2023-04-28T16:42:15.069Z,96688.56
2023-04-28T16:45:01.791Z,96693.06
2023-04-28T16:47:48.615Z,96685.91
2023-04-28T16:50:36.099Z,96681.94
2023-04-28T16:53:22.894Z,96676.03
2023-04-28T16:56:10.861Z,96670.44
2023-04-28T16:58:58.052Z,96654.22
2023-04-28T17:01:45.555Z,96668.59
2023-04-28T17:04:32.756Z,96676.41
2023-04-28T17:07:19.744Z,96678.28
2023-04-28T17:10:07.186Z,96661.41
2023-04-28T17:12:53.954Z,96661.19
2023-04-28T17:15:40.872Z,96659.56
2023-04-28T17:18:27.740Z,96654.22
2023-04-28T17:21:14.616Z,96651.56
2023-04-28T17:24:01.530Z,96653.84
2023-04-28T17:26:48.314Z,96649.34
2023-04-28T17:29:35.051Z,96654.94
2023-04-28T17:32:22.305Z,96660.72
2023-04-28T17:35:09.213Z,96669.56
2023-04-28T17:37:56.074Z,96659.94
2023-04-28T17:40:48.372Z,96664.72
2023-04-28T17:43:35.935Z,96656.91
2023-04-28T17:46:22.698Z,96662.22
2023-04-28T17:49:09.434Z,96668.13
2023-04-28T17:51:56.322Z,96670.56
2023-04-28T17:54:43.118Z,96674.25
2023-04-28T17:57:29.843Z,96674.19
2023-04-28T18:00:16.647Z,96664.53
2023-04-28T18:03:03.453Z,96664.06
2023-04-28T18:05:50.401Z,96661.19
2023-04-28T18:08:37.218Z,96676.81
2023-04-28T18:11:24.173Z,96659.50
2023-04-28T18:14:11.039Z,96653.16
2023-04-28T18:16:58.191Z,96668.34
2023-04-28T18:19:45.570Z,96663.59
2023-04-28T18:22:32.858Z,96668.72
2023-04-28T18:25:20.079Z,96665.03
2023-04-28T18:28:08.211Z,96656.78
2023-04-28T18:30:54.977Z,96658.41
2023-04-28T18:33:41.964Z,96654.13
2023-04-28T18:36:28.850Z,96658.41
2023-04-28T18:39:15.684Z,96657.59
2023-04-28T18:42:04.125Z,96668.91
2023-04-28T18:44:58.708Z,96668.09
2023-04-28T18:47:45.588Z,96671.34
2023-04-28T18:50:32.704Z,96667.66
2023-04-28T18:53:19.979Z,96675.44
2023-04-28T18:56:06.702Z,96678.94
2023-04-28T18:58:53.461Z,96671.72
2023-04-28T19:01:40.702Z,96685.09
2023-04-28T19:04:27.652Z,96677.31
2023-04-28T19:07:14.492Z,96698.69
2023-04-28T19:10:01.314Z,96711.00
2023-04-28T19:12:48.118Z,96713.66
2023-04-28T19:15:35.115Z,96711.81
2023-04-28T19:18:22.626Z,96704.63
2023-04-28T19:21:12.187Z,96704.63
2023-04-28T19:23:59.317Z,96716.97
2023-04-28T19:26:46.187Z,96718.38
2023-04-28T19:29:33.089Z,96721.25
2023-04-28T19:32:19.815Z,96714.69
2023-04-28T19:35:06.968Z,96718.38
2023-04-28T19:37:54.714Z,96727.22
2023-04-28T19:40:41.677Z,96716.53
2023-04-28T19:43:28.384Z,96702.13
2023-04-28T19:46:16.531Z,96710.16
2023-04-28T19:49:03.719Z,96718.16
2023-04-28T19:51:51.253Z,96725.38
2023-04-28T19:54:38.836Z,96726.19
2023-04-28T19:57:25.539Z,96724.31
2023-04-28T20:00:12.700Z,96733.38
2023-04-28T20:02:59.837Z,96725.13
2023-04-28T20:05:47.118Z,96726.19
2023-04-28T20:08:33.838Z,96731.53
2023-04-28T20:11:20.952Z,96747.56
2023-04-28T20:14:07.986Z,96745.09
2023-04-28T20:16:54.682Z,96745.09
2023-04-28T20:19:41.729Z,96736.25
2023-04-28T20:22:28.527Z,96726.59
2023-04-28T20:25:15.650Z,96733.59
2023-04-28T20:28:02.360Z,96741.41
2023-04-28T20:30:49.092Z,96746.75
2023-04-28T20:33:35.777Z,96751.06
2023-04-28T20:36:22.511Z,96751.28
2023-04-28T20:39:11.102Z,96746.94
2023-04-28T20:41:59.428Z,96749.63
2023-04-28T20:44:46.588Z,96747.97
2023-04-28T20:47:33.388Z,96752.50
2023-04-28T20:50:20.133Z,96744.50
2023-04-28T20:53:07.486Z,96737.53
2023-04-28T20:55:54.239Z,96738.34
2023-04-28T20:58:42.439Z,96735.66
2023-04-28T21:01:29.255Z,96742.41
2023-04-28T21:04:16.486Z,96753.94
2023-04-28T21:07:03.369Z,96742.66
2023-04-28T21:09:51.029Z,96752.72
2023-04-28T21:12:38.345Z,96753.56
2023-04-28T21:15:25.804Z,96755.19
2023-04-28T21:18:12.614Z,96750.03
2023-04-28T21:20:59.398Z,96757.03
2023-04-28T21:23:46.142Z,96762.38
2023-04-28T21:26:33.026Z,96761.34
2023-04-28T21:29:19.794Z,96755.19
2023-04-28T21:32:06.642Z,96757.25
2023-04-28T21:34:53.380Z,96765.50
2023-04-28T21:37:40.100Z,96757.66
2023-04-28T21:40:26.845Z,96750.69
2023-04-28T21:43:13.629Z,96758.31
2023-04-28T21:46:00.692Z,96753.19
2023-04-28T21:48:47.614Z,96750.94
2023-04-28T21:51:34.492Z,96751.78
2023-04-28T21:54:21.252Z,96754.88
2023-04-28T21:57:08.393Z,96757.13
2023-04-28T21:59:55.152Z,96751.38
2023-04-28T22:02:42.028Z,96751.38
2023-04-28T22:05:29.217Z,96758.19
2023-04-28T22:08:16.982Z,96767.66
2023-04-28T22:11:04.685Z,96766.22
2023-04-28T22:13:51.443Z,96768.31
2023-04-28T22:16:38.687Z,96756.59
2023-04-28T22:19:25.434Z,96768.47
2023-04-28T22:22:12.469Z,96762.31
2023-04-28T22:24:59.371Z,96760.06
2023-04-28T22:27:46.249Z,96762.56
2023-04-28T22:30:33.039Z,96765.03
2023-04-28T22:33:19.878Z,96763.56
2023-04-28T22:36:07.257Z,96767.28
2023-04-28T22:38:53.981Z,96763.56
2023-04-28T22:41:41.312Z,96763.38
2023-04-28T22:44:28.083Z,96755.97
2023-04-28T22:47:15.258Z,96761.31
2023-04-28T22:50:05.712Z,96762.16
2023-04-28T22:52:52.482Z,96772.84
2023-04-28T22:55:39.266Z,96761.72
2023-04-28T22:58:26.278Z,96757.81
2023-04-28T23:01:13.048Z,96759.91
2023-04-28T23:04:00.023Z,96746.97
2023-04-28T23:06:46.901Z,96758.66
2023-04-28T23:09:36.065Z,96750.03
2023-04-28T23:12:22.845Z,96756.59
2023-04-28T23:15:09.760Z,96737.66
2023-04-28T23:17:56.483Z,96741.38
2023-04-28T23:20:43.241Z,96747.56
2023-04-28T23:23:30.014Z,96748.81
2023-04-28T23:26:16.864Z,96749.63
2023-04-28T23:29:03.548Z,96744.88
2023-04-28T23:31:54.955Z,96734.81
2023-04-28T23:34:42.685Z,96737.06
2023-04-28T23:37:29.527Z,96741.59
2023-04-28T23:40:16.333Z,96740.75
2023-04-28T23:43:03.054Z,96738.06
2023-04-28T23:45:49.924Z,96742.19
2023-04-28T23:48:36.706Z,96744.84
2023-04-28T23:51:23.692Z,96730.69
2023-04-28T23:54:10.618Z,96729.63
2023-04-28T23:56:57.413Z,96733.13
2023-04-28T23:59:44.104Z,96720.81
